createdAt,value
2018-02-01T00:01:04.524Z,1002
2018-02-01T00:06:04.347Z,1001.9
2018-02-01T00:11:04.455Z,1001.9
2018-02-01T00:16:05.241Z,1001.9
2018-02-01T00:21:06.391Z,1001.6
2018-02-01T00:26:05.111Z,1001.8
2018-02-01T00:31:04.907Z,1001.7
2018-02-01T00:36:04.756Z,1001.8
2018-02-01T00:41:04.571Z,1001.8
2018-02-01T00:46:04.461Z,1001.8
2018-02-01T00:51:05.130Z,1001.8
2018-02-01T00:56:04.846Z,1001.8
2018-02-01T01:01:04.616Z,1001.9
2018-02-01T01:06:04.301Z,1001.8
2018-02-01T01:11:04.924Z,1001.8
2018-02-01T01:16:04.779Z,1001.8
2018-02-01T01:21:04.517Z,1001.9
2018-02-01T01:26:05.271Z,1001.9
2018-02-01T01:31:05.539Z,1001.8
2018-02-01T01:36:04.563Z,1001.8
2018-02-01T01:41:04.688Z,1001.8
2018-02-01T01:46:04.520Z,1001.7
2018-02-01T01:51:04.173Z,1001.8
2018-02-01T01:56:04.995Z,1001.6
2018-02-01T02:01:04.804Z,1001.6
2018-02-01T02:06:04.448Z,1001.5
2018-02-01T02:11:04.667Z,1001.5
2018-02-01T02:16:04.362Z,1001.5
2018-02-01T02:21:04.220Z,1001.5
2018-02-01T02:26:04.976Z,1001.5
2018-02-01T02:31:04.710Z,1001.4
2018-02-01T02:36:04.399Z,1001.4
2018-02-01T02:41:04.688Z,1001.3
2018-02-01T02:46:04.441Z,1001.3
2018-02-01T02:51:05.207Z,1001.2
2018-02-01T02:56:04.865Z,1001.2
2018-02-01T03:01:04.580Z,1001.2
2018-02-01T03:06:04.298Z,1001.3
2018-02-01T03:11:04.482Z,1001.3
2018-02-01T03:16:04.147Z,1001.3
2018-02-01T03:21:04.975Z,1001.3
2018-02-01T03:26:04.736Z,1001.2
2018-02-01T03:31:04.498Z,1001.2
2018-02-01T03:36:04.183Z,1001.1
2018-02-01T03:41:04.332Z,1001.2
2018-02-01T03:46:05.043Z,1001.2
2018-02-01T03:51:04.717Z,1001.3
2018-02-01T03:56:04.434Z,1001.3
2018-02-01T04:01:04.229Z,1001.3
2018-02-01T04:06:04.913Z,1001.3
2018-02-01T04:11:05.067Z,1001.3
2018-02-01T04:16:04.808Z,1001.2
2018-02-01T04:21:04.670Z,1001.3
2018-02-01T04:26:04.400Z,1001.3
2018-02-01T04:31:04.140Z,1001.3
2018-02-01T04:36:04.914Z,1001.4
2018-02-01T04:41:05.012Z,1001.3
2018-02-01T04:46:04.746Z,1001.3
2018-02-01T04:51:04.428Z,1001.3
2018-02-01T04:56:04.153Z,1001.3
2018-02-01T05:01:04.901Z,1001.4
2018-02-01T05:06:04.616Z,1001.3
2018-02-01T05:11:04.674Z,1001.2
2018-02-01T05:16:04.152Z,1001.2
2018-02-01T05:21:04.928Z,1001.1
2018-02-01T05:26:04.478Z,1001.2
2018-02-01T05:31:04.277Z,1001.2
2018-02-01T05:36:05.048Z,1001.1
2018-02-01T05:41:04.144Z,1001.1
2018-02-01T05:46:04.933Z,1001.1
2018-02-01T05:51:04.677Z,1001.1
2018-02-01T05:56:04.703Z,1001.2
2018-02-01T06:01:04.252Z,1001.2
2018-02-01T06:06:05.014Z,1001.2
2018-02-01T06:11:04.147Z,1001.1
2018-02-01T06:16:04.963Z,1001.1
2018-02-01T06:21:04.757Z,1001.1
2018-02-01T06:26:04.666Z,1001.1
2018-02-01T06:31:04.335Z,1001.1
2018-02-01T06:36:05.065Z,1001.1
2018-02-01T06:41:04.243Z,1001.2
2018-02-01T06:46:04.981Z,1001.2
2018-02-01T06:51:04.754Z,1001.1
2018-02-01T06:56:04.416Z,1001.1
2018-02-01T07:01:04.241Z,1001.2
2018-02-01T07:06:04.921Z,1001.2
2018-02-01T07:11:05.064Z,1001.2
2018-02-01T07:16:04.816Z,1001.3
2018-02-01T07:21:04.618Z,1001.3
2018-02-01T07:26:04.307Z,1001.3
2018-02-01T07:31:05.086Z,1001.3
2018-02-01T07:36:04.830Z,1001.4
2018-02-01T07:41:05.145Z,1001.4
2018-02-01T07:46:04.781Z,1001.4
2018-02-01T07:51:04.491Z,1001.4
2018-02-01T07:56:04.246Z,1001.3
2018-02-01T08:01:04.956Z,1001.4
2018-02-01T08:06:04.702Z,1001.4
2018-02-01T08:11:04.841Z,1001.4
2018-02-01T08:16:04.579Z,1001.4
2018-02-01T08:21:04.403Z,1001.4
2018-02-01T08:26:04.135Z,1001.4
2018-02-01T08:31:04.916Z,1001.4
2018-02-01T08:36:04.616Z,1001.4
2018-02-01T08:41:04.807Z,1001.4
2018-02-01T08:46:04.516Z,1001.4
2018-02-01T08:51:04.309Z,1001.4
2018-02-01T08:56:05.008Z,1001.4
2018-02-01T09:01:04.756Z,1001.4
2018-02-01T09:06:04.629Z,1001.5
2018-02-01T09:11:04.684Z,1001.5
2018-02-01T09:16:04.411Z,1001.5
2018-02-01T09:21:04.212Z,1001.4
2018-02-01T09:26:04.929Z,1001.5
2018-02-01T09:31:04.656Z,1001.5
2018-02-01T09:36:04.383Z,1001.6
2018-02-01T09:41:04.548Z,1001.7
2018-02-01T09:46:04.356Z,1001.6
2018-02-01T09:51:05.058Z,1001.8
2018-02-01T09:56:04.813Z,1001.7
2018-02-01T10:01:04.584Z,1001.5
2018-02-01T10:06:04.299Z,1001.5
2018-02-01T10:11:04.393Z,1001.5
2018-02-01T10:16:04.130Z,1001.5
2018-02-01T10:21:04.877Z,1001.6
2018-02-01T10:26:04.700Z,1001.7
2018-02-01T10:31:04.411Z,1001.6
2018-02-01T10:36:04.096Z,1001.6
2018-02-01T10:41:04.240Z,1001.4
2018-02-01T10:46:04.973Z,1001.6
2018-02-01T10:51:04.714Z,1001.5
2018-02-01T10:56:04.424Z,1001.4
2018-02-01T11:01:04.127Z,1001.5
2018-02-01T11:06:05.003Z,1001.4
2018-02-01T11:11:04.175Z,1001.3
2018-02-01T11:16:04.915Z,1001.1
2018-02-01T11:21:04.780Z,1001.2
2018-02-01T11:26:04.491Z,1001.1
2018-02-01T11:31:04.217Z,1001.2
2018-02-01T11:36:04.935Z,1001.2
2018-02-01T11:41:05.090Z,1001.1
2018-02-01T11:46:04.796Z,1001.1
2018-02-01T11:51:04.558Z,1001.1
2018-02-01T11:56:04.237Z,1001
2018-02-01T12:01:05.008Z,1001.1
2018-02-01T12:06:05.803Z,1001.1
2018-02-01T12:11:04.280Z,1001
2018-02-01T12:16:05.039Z,1000.9
2018-02-01T12:21:04.895Z,1001
2018-02-01T12:26:04.611Z,1000.8
2018-02-01T12:31:04.429Z,1000.7
2018-02-01T12:36:04.156Z,1000.7
2018-02-01T12:41:04.302Z,1000.9
2018-02-01T12:46:05.092Z,1000.9
2018-02-01T12:51:04.864Z,1000.9
2018-02-01T12:56:04.582Z,1000.9
2018-02-01T13:01:04.344Z,1000.9
2018-02-01T13:06:05.323Z,1000.9
2018-02-01T13:11:04.176Z,1000.9
2018-02-01T13:16:04.868Z,1000.8
2018-02-01T13:21:04.716Z,1000.7
2018-02-01T13:26:04.419Z,1000.7
2018-02-01T13:31:04.164Z,1000.7
2018-02-01T13:36:14.512Z,1000.7
2018-02-01T13:41:04.276Z,1000.7
2018-02-01T13:46:04.967Z,1000.7
2018-02-01T13:51:04.730Z,1000.6
2018-02-01T13:56:04.652Z,1000.6
2018-02-01T14:01:04.259Z,1000.6
2018-02-01T14:06:05.503Z,1000.6
2018-02-01T14:11:04.346Z,1000.6
2018-02-01T14:16:06.187Z,1000.6
2018-02-01T14:21:04.903Z,1000.6
2018-02-01T14:26:05.104Z,1000.6
2018-02-01T14:31:04.919Z,1000.6
2018-02-01T14:36:04.295Z,1000.6
2018-02-01T14:41:05.189Z,1000.6
2018-02-01T14:46:04.614Z,1000.9
2018-02-01T14:51:04.218Z,1000.9
2018-02-01T14:56:04.952Z,1000.9
2018-02-01T15:01:04.719Z,1000.9
2018-02-01T15:06:04.451Z,1000.9
2018-02-01T15:11:04.623Z,1001
2018-02-01T15:16:04.415Z,1001
2018-02-01T15:21:04.231Z,1001
2018-02-01T15:26:04.949Z,1001.1
2018-02-01T15:31:04.751Z,1001
2018-02-01T15:36:04.421Z,1001
2018-02-01T15:41:04.836Z,1001
2018-02-01T15:46:04.811Z,1001.3
2018-02-01T15:51:04.527Z,1001.4
2018-02-01T15:56:04.357Z,1001.4
2018-02-01T16:01:05.113Z,1001.4
2018-02-01T16:06:04.882Z,1001.4
2018-02-01T16:11:05.029Z,1001.6
2018-02-01T16:16:04.783Z,1001.6
2018-02-01T16:21:04.734Z,1001.7
2018-02-01T16:26:04.431Z,1001.7
2018-02-01T16:31:04.236Z,1001.9
2018-02-01T16:36:04.965Z,1002
2018-02-01T16:41:05.112Z,1002.1
2018-02-01T16:46:04.860Z,1002.1
2018-02-01T16:51:04.595Z,1002.2
2018-02-01T16:56:04.361Z,1002.2
2018-02-01T17:01:05.125Z,1002.1
2018-02-01T17:06:04.834Z,1002.3
2018-02-01T17:11:05.040Z,1002.4
2018-02-01T17:16:04.824Z,1002.3
2018-02-01T17:21:04.695Z,1002.5
2018-02-01T17:26:04.282Z,1002.5
2018-02-01T17:31:05.083Z,1002.5
2018-02-01T17:36:04.803Z,1002.6
2018-02-01T17:41:04.980Z,1002.6
2018-02-01T17:46:04.696Z,1002.6
2018-02-01T17:51:04.402Z,1002.7
2018-02-01T17:56:04.205Z,1002.7
2018-02-01T18:01:05.006Z,1002.8
2018-02-01T18:06:04.859Z,1002.8
2018-02-01T18:11:05.190Z,1002.9
2018-02-01T18:16:04.894Z,1002.9
2018-02-01T18:21:04.678Z,1002.8
2018-02-01T18:26:04.375Z,1003
2018-02-01T18:31:05.985Z,1003
2018-02-01T18:36:04.939Z,1003
2018-02-01T18:41:04.522Z,1003.1
2018-02-01T18:46:04.280Z,1003.1
2018-02-01T18:51:05.038Z,1003.1
2018-02-01T18:56:04.774Z,1003.1
2018-02-01T19:01:04.542Z,1003.1
2018-02-01T19:06:04.270Z,1003.2
2018-02-01T19:11:04.335Z,1003.2
2018-02-01T19:16:04.190Z,1003.3
2018-02-01T19:21:05.295Z,1003.3
2018-02-01T19:26:05.098Z,1003.3
2018-02-01T19:31:05.897Z,1003.3
2018-02-01T19:36:07.288Z,1003.3
2018-02-01T19:41:05.414Z,1003.3
2018-02-01T19:46:06.372Z,1003.2
2018-02-01T19:51:06.619Z,1003.3
2018-02-01T19:56:05.257Z,1003.3
2018-02-01T20:01:06.694Z,1003.3
2018-02-01T20:06:06.882Z,1003.4
2018-02-01T20:11:07.019Z,1003.3
2018-02-01T20:16:06.159Z,1003.4
2018-02-01T20:21:07.435Z,1003.4
2018-02-01T20:26:07.843Z,1003.4
2018-02-01T20:31:07.299Z,1003.4
2018-02-01T20:36:07.002Z,1003.4
2018-02-01T20:41:07.261Z,1003.4
2018-02-01T20:46:06.821Z,1003.4
2018-02-01T20:51:07.498Z,1003.4
2018-02-01T20:56:06.667Z,1003.4
2018-02-01T21:01:05.962Z,1003.4
2018-02-01T21:06:05.880Z,1003.4
2018-02-01T21:11:05.000Z,1003.4
2018-02-01T21:16:04.590Z,1003.4
2018-02-01T21:21:05.382Z,1003.4
2018-02-01T21:26:05.116Z,1003.4
2018-02-01T21:31:04.773Z,1003.4
2018-02-01T21:36:04.819Z,1003.4
2018-02-01T21:41:05.426Z,1003.4
2018-02-01T21:46:04.725Z,1003.4
2018-02-01T21:51:05.616Z,1003.4
2018-02-01T21:56:05.349Z,1003.4
2018-02-01T22:01:04.980Z,1003.4
2018-02-01T22:06:04.741Z,1003.4
2018-02-01T22:11:05.021Z,1003.4
2018-02-01T22:16:04.790Z,1003.4
2018-02-01T22:21:04.776Z,1003.4
2018-02-01T22:26:04.466Z,1003.4
2018-02-01T22:31:04.200Z,1003.4
2018-02-01T22:36:04.955Z,1003.4
2018-02-01T22:41:05.093Z,1003.5
2018-02-01T22:46:04.847Z,1003.5
2018-02-01T22:51:05.245Z,1003.5
2018-02-01T22:56:05.251Z,1003.5
2018-02-01T23:01:04.611Z,1003.4
2018-02-01T23:06:05.121Z,1003.5
2018-02-01T23:11:04.972Z,1003.5
2018-02-01T23:16:05.914Z,1003.4
2018-02-01T23:21:05.608Z,1003.5
2018-02-01T23:26:04.971Z,1003.5
2018-02-01T23:31:06.718Z,1003.5
2018-02-01T23:36:04.881Z,1003.4
2018-02-01T23:41:04.504Z,1003.4
2018-02-01T23:46:04.545Z,1003.4
2018-02-01T23:51:04.923Z,1003.2
2018-02-01T23:56:04.707Z,1003.3
